createdAt,value
2022-11-21T00:01:29.410Z,5.70
2022-11-21T00:03:59.210Z,5.50
2022-11-21T00:06:27.735Z,5.30
2022-11-21T00:08:57.458Z,5.20
2022-11-21T00:11:25.898Z,5.10
2022-11-21T00:13:54.295Z,5.00
2022-11-21T00:16:22.707Z,4.90
2022-11-21T00:18:51.123Z,4.90
2022-11-21T00:21:21.705Z,4.80
2022-11-21T00:23:50.184Z,4.70
2022-11-21T00:26:18.614Z,4.70
2022-11-21T00:28:47.205Z,4.60
2022-11-21T00:31:22.815Z,4.50
2022-11-21T00:33:51.337Z,4.40
2022-11-21T00:36:21.105Z,4.40
2022-11-21T00:38:49.701Z,4.40
2022-11-21T00:41:18.486Z,4.50
2022-11-21T00:43:46.925Z,4.70
2022-11-21T00:46:15.505Z,4.90
2022-11-21T00:48:43.953Z,5.00
2022-11-21T00:51:12.377Z,4.80
2022-11-21T00:53:42.709Z,4.50
2022-11-21T00:56:11.148Z,4.40
2022-11-21T00:58:39.615Z,4.20
2022-11-21T01:01:10.633Z,4.10
2022-11-21T01:03:39.125Z,3.90
2022-11-21T01:06:09.317Z,3.80
2022-11-21T01:08:39.243Z,3.90
2022-11-21T01:11:10.925Z,3.90
2022-11-21T01:13:39.878Z,3.80
2022-11-21T01:16:10.194Z,3.80
2022-11-21T01:18:38.673Z,3.70
2022-11-21T01:21:08.549Z,3.70
2022-11-21T01:23:36.957Z,3.70
2022-11-21T01:26:06.206Z,3.70
2022-11-21T01:28:36.073Z,3.70
2022-11-21T01:31:06.140Z,4.10
2022-11-21T01:33:35.186Z,4.40
2022-11-21T01:36:14.655Z,4.40
2022-11-21T01:38:44.657Z,4.30
2022-11-21T01:41:14.381Z,4.20
2022-11-21T01:43:44.353Z,4.20
2022-11-21T01:46:15.310Z,4.20
2022-11-21T01:48:47.493Z,4.10
2022-11-21T01:51:19.880Z,4.00
2022-11-21T01:53:54.448Z,4.00
2022-11-21T01:56:23.443Z,4.10
2022-11-21T01:58:54.689Z,4.10
2022-11-21T02:01:23.234Z,4.10
2022-11-21T02:03:52.413Z,4.10
2022-11-21T02:06:20.944Z,4.10
2022-11-21T02:08:49.451Z,4.00
2022-11-21T02:11:23.367Z,3.90
2022-11-21T02:13:53.302Z,3.80
2022-11-21T02:16:21.750Z,3.70
2022-11-21T02:18:50.146Z,3.70
2022-11-21T02:21:25.058Z,3.60
2022-11-21T02:24:00.671Z,3.60
2022-11-21T02:26:31.434Z,3.50
2022-11-21T02:28:59.912Z,3.50
2022-11-21T02:31:28.355Z,3.50
2022-11-21T02:33:56.816Z,3.50
2022-11-21T02:36:38.377Z,3.50
2022-11-21T02:39:08.511Z,3.50
2022-11-21T02:41:40.682Z,3.50
2022-11-21T02:44:14.226Z,3.50
2022-11-21T02:46:49.652Z,3.60
2022-11-21T02:49:22.612Z,3.60
2022-11-21T02:51:51.040Z,3.60
2022-11-21T02:54:19.489Z,3.60
2022-11-21T02:56:49.252Z,3.60
2022-11-21T02:59:17.680Z,3.70
2022-11-21T03:01:46.067Z,3.80
2022-11-21T03:04:14.442Z,3.80
2022-11-21T03:06:42.841Z,3.80
2022-11-21T03:09:12.773Z,3.80
2022-11-21T03:11:41.169Z,3.90
2022-11-21T03:14:11.160Z,3.90
2022-11-21T03:16:39.595Z,4.00
2022-11-21T03:19:08.119Z,4.00
2022-11-21T03:21:36.609Z,4.00
2022-11-21T03:24:05.531Z,4.00
2022-11-21T03:26:33.978Z,3.90
2022-11-21T03:29:02.529Z,3.90
2022-11-21T03:31:32.322Z,3.90
2022-11-21T03:34:01.264Z,3.90
2022-11-21T03:36:29.758Z,3.90
2022-11-21T03:38:58.591Z,4.20
2022-11-21T03:41:33.130Z,4.70
2022-11-21T03:44:03.389Z,5.00
2022-11-21T03:46:34.722Z,5.00
2022-11-21T03:49:03.249Z,5.00
2022-11-21T03:51:32.002Z,4.90
2022-11-21T03:54:00.504Z,4.90
2022-11-21T03:56:29.159Z,4.80
2022-11-21T03:58:57.997Z,4.70
2022-11-21T04:01:27.107Z,4.70
2022-11-21T04:03:57.296Z,4.60
2022-11-21T04:06:26.115Z,4.50
2022-11-21T04:08:54.734Z,4.50
2022-11-21T04:11:24.670Z,4.50
2022-11-21T04:13:53.124Z,4.50
2022-11-21T04:16:21.848Z,4.40
2022-11-21T04:18:50.390Z,4.40
2022-11-21T04:21:20.168Z,4.40
2022-11-21T04:23:48.569Z,4.40
2022-11-21T04:26:16.986Z,4.40
2022-11-21T04:28:45.402Z,4.40
2022-11-21T04:31:13.870Z,4.30
2022-11-21T04:33:42.418Z,4.30
2022-11-21T04:36:10.917Z,4.30
2022-11-21T04:38:40.725Z,4.30
2022-11-21T04:41:09.184Z,4.40
2022-11-21T04:43:37.631Z,4.40
2022-11-21T04:46:06.089Z,4.50
2022-11-21T04:48:34.497Z,4.50
2022-11-21T04:51:02.994Z,4.50
2022-11-21T04:53:31.451Z,4.60
2022-11-21T04:56:05.010Z,4.60
2022-11-21T04:58:33.586Z,4.60
2022-11-21T05:01:07.748Z,4.60
2022-11-21T05:03:36.420Z,4.60
2022-11-21T05:06:05.427Z,4.70
2022-11-21T05:08:33.850Z,4.60
2022-11-21T05:11:21.157Z,4.60
2022-11-21T05:13:49.566Z,4.60
2022-11-21T05:16:17.995Z,4.60
2022-11-21T05:18:46.453Z,4.60
2022-11-21T05:21:14.913Z,4.70
2022-11-21T05:23:43.347Z,4.80
2022-11-21T05:26:13.195Z,4.80
2022-11-21T05:28:41.639Z,4.80
2022-11-21T05:31:10.161Z,4.90
2022-11-21T05:33:38.563Z,4.80
2022-11-21T05:36:07.160Z,4.80
2022-11-21T05:38:35.586Z,5.00
2022-11-21T05:41:04.010Z,5.30
2022-11-21T05:43:53.801Z,5.40
2022-11-21T05:46:24.708Z,5.40
2022-11-21T05:48:54.075Z,5.30
2022-11-21T05:51:22.933Z,5.20
2022-11-21T05:53:51.325Z,5.20
2022-11-21T05:56:20.583Z,5.50
2022-11-21T05:58:50.355Z,5.80
2022-11-21T06:01:39.189Z,6.10
2022-11-21T06:04:06.800Z,6.20
2022-11-21T06:06:35.567Z,6.40
2022-11-21T06:09:04.417Z,6.40
2022-11-21T06:11:32.933Z,6.40
2022-11-21T06:14:02.743Z,6.40
2022-11-21T06:16:31.211Z,6.50
2022-11-21T06:18:59.680Z,6.60
2022-11-21T06:21:29.790Z,6.60
2022-11-21T06:23:59.240Z,6.70
2022-11-21T06:26:28.514Z,6.50
2022-11-21T06:28:57.013Z,6.00
2022-11-21T06:31:27.998Z,5.50
2022-11-21T06:33:57.651Z,5.00
2022-11-21T06:36:27.123Z,4.60
2022-11-21T06:38:56.127Z,4.10
2022-11-21T06:41:25.935Z,3.80
2022-11-21T06:43:54.759Z,3.70
2022-11-21T06:46:23.254Z,3.60
2022-11-21T06:48:53.147Z,3.50
2022-11-21T06:51:23.322Z,3.50
2022-11-21T06:53:55.827Z,3.30
2022-11-21T06:56:24.455Z,3.20
2022-11-21T06:58:53.085Z,3.10
2022-11-21T07:01:21.609Z,3.00
2022-11-21T07:03:50.246Z,3.00
2022-11-21T07:06:20.039Z,3.00
2022-11-21T07:09:00.058Z,3.00
2022-11-21T07:11:36.917Z,2.90
2022-11-21T07:14:09.009Z,3.10
2022-11-21T07:16:37.900Z,3.10
2022-11-21T07:19:06.519Z,3.10
2022-11-21T07:21:36.403Z,3.10
2022-11-21T07:24:05.374Z,3.10
2022-11-21T07:26:33.824Z,3.10
2022-11-21T07:29:02.422Z,2.90
2022-11-21T07:31:30.835Z,3.00
2022-11-21T07:33:59.224Z,3.00
2022-11-21T07:36:28.501Z,3.00
2022-11-21T07:39:00.594Z,3.10
2022-11-21T07:41:29.042Z,3.10
2022-11-21T07:43:57.453Z,3.00
2022-11-21T07:46:26.046Z,3.10
2022-11-21T07:48:55.878Z,3.20
2022-11-21T07:51:25.803Z,3.10
2022-11-21T07:53:54.227Z,3.20
2022-11-21T07:56:26.479Z,3.30
2022-11-21T07:58:55.009Z,3.40
2022-11-21T08:01:23.479Z,3.50
2022-11-21T08:03:52.071Z,3.50
2022-11-21T08:06:20.579Z,3.70
2022-11-21T08:08:51.949Z,3.70
2022-11-21T08:11:20.375Z,3.70
2022-11-21T08:13:50.260Z,3.80
2022-11-21T08:16:18.702Z,3.90
2022-11-21T08:18:47.188Z,3.90
2022-11-21T08:21:19.633Z,3.90
2022-11-21T08:23:48.708Z,3.90
2022-11-21T08:26:17.776Z,4.00
2022-11-21T08:28:46.248Z,4.00
2022-11-21T08:31:16.118Z,4.00
2022-11-21T08:33:44.502Z,4.10
2022-11-21T08:36:12.971Z,4.10
2022-11-21T08:38:41.436Z,4.10
2022-11-21T08:41:27.200Z,4.20
2022-11-21T08:43:55.631Z,4.30
2022-11-21T08:46:27.392Z,4.40
2022-11-21T08:48:56.354Z,4.50
2022-11-21T08:51:24.776Z,4.50
2022-11-21T08:53:53.207Z,4.60
2022-11-21T08:56:21.643Z,4.70
2022-11-21T08:58:50.040Z,4.70
2022-11-21T09:01:18.544Z,4.70
2022-11-21T09:03:48.426Z,4.80
2022-11-21T09:06:16.937Z,4.80
2022-11-21T09:08:45.407Z,4.90
2022-11-21T09:11:13.825Z,4.90
2022-11-21T09:13:42.266Z,5.00
2022-11-21T09:16:30.356Z,5.00
2022-11-21T09:19:00.153Z,5.10
2022-11-21T09:21:28.570Z,5.20
2022-11-21T09:23:56.966Z,5.30
2022-11-21T09:26:25.377Z,5.30
2022-11-21T09:28:53.861Z,5.40
2022-11-21T09:31:22.285Z,5.50
2022-11-21T09:33:54.764Z,5.50
2022-11-21T09:36:25.024Z,5.60
2022-11-21T09:38:53.998Z,5.60
2022-11-21T09:41:46.570Z,5.70
2022-11-21T09:44:41.389Z,5.70
2022-11-21T09:47:23.886Z,5.70
2022-11-21T09:49:58.303Z,5.70
2022-11-21T09:52:32.515Z,5.80
2022-11-21T09:55:06.318Z,5.80
2022-11-21T09:57:36.815Z,5.90
2022-11-21T10:00:14.401Z,6.00
2022-11-21T10:02:43.094Z,6.00
2022-11-21T10:05:14.865Z,6.10
2022-11-21T10:07:47.269Z,6.30
2022-11-21T10:10:26.014Z,6.40
2022-11-21T10:13:07.728Z,6.50
2022-11-21T10:15:47.911Z,6.60
2022-11-21T10:18:46.356Z,6.80
2022-11-21T10:21:28.422Z,6.90
2022-11-21T10:24:09.484Z,6.80
2022-11-21T10:26:43.352Z,6.80
2022-11-21T10:29:15.672Z,6.80
2022-11-21T10:31:44.333Z,6.80
2022-11-21T10:34:15.421Z,6.80
2022-11-21T10:36:45.972Z,6.80
2022-11-21T10:39:21.492Z,6.90
2022-11-21T10:41:52.516Z,6.90
2022-11-21T10:44:44.112Z,6.90
2022-11-21T10:47:27.213Z,6.90
2022-11-21T10:50:07.874Z,6.90
2022-11-21T10:52:37.665Z,6.90
2022-11-21T10:55:13.114Z,7.00
2022-11-21T10:57:46.885Z,7.00
2022-11-21T11:00:22.488Z,7.10
2022-11-21T11:03:05.519Z,7.20
2022-11-21T11:05:35.257Z,7.20
2022-11-21T11:08:07.250Z,7.30
2022-11-21T11:10:38.220Z,7.40
2022-11-21T11:13:49.124Z,7.50
2022-11-21T11:16:19.395Z,7.60
2022-11-21T11:18:50.172Z,7.60
2022-11-21T11:21:20.555Z,7.70
2022-11-21T11:23:50.631Z,7.90
2022-11-21T11:26:28.924Z,8.10
2022-11-21T11:29:09.711Z,8.10
2022-11-21T11:31:42.804Z,8.20
2022-11-21T11:34:15.182Z,8.30
2022-11-21T11:36:56.250Z,8.50
2022-11-21T11:39:37.253Z,8.60
2022-11-21T11:42:40.646Z,8.80
2022-11-21T11:45:49.513Z,8.80
2022-11-21T11:48:20.028Z,8.90
2022-11-21T11:50:50.884Z,8.90
2022-11-21T11:53:21.474Z,8.80
2022-11-21T11:55:54.401Z,8.80
2022-11-21T11:58:28.174Z,8.80
2022-11-21T12:01:01.949Z,9.00
2022-11-21T12:03:36.846Z,9.00
2022-11-21T12:06:09.676Z,9.00
2022-11-21T12:08:43.948Z,9.00
2022-11-21T12:11:37.802Z,8.90
2022-11-21T12:14:35.249Z,8.90
2022-11-21T12:17:07.351Z,8.80
2022-11-21T12:19:36.603Z,8.70
2022-11-21T12:22:06.577Z,8.60
2022-11-21T12:24:39.923Z,8.50
2022-11-21T12:27:29.651Z,8.50
2022-11-21T12:30:21.946Z,8.40
2022-11-21T12:32:57.739Z,8.30
2022-11-21T12:35:44.364Z,8.30
2022-11-21T12:38:22.701Z,8.20
2022-11-21T12:41:00.175Z,8.20
2022-11-21T12:43:35.061Z,8.10
2022-11-21T12:46:14.878Z,8.10
2022-11-21T12:49:11.286Z,8.20
2022-11-21T12:52:10.053Z,8.20
2022-11-21T12:55:19.210Z,8.30
2022-11-21T12:58:06.953Z,8.30
2022-11-21T13:00:44.415Z,8.30
2022-11-21T13:03:35.257Z,8.40
2022-11-21T13:06:05.350Z,8.50
2022-11-21T13:08:37.033Z,8.50
2022-11-21T13:11:28.597Z,8.60
2022-11-21T13:14:04.319Z,8.60
2022-11-21T13:16:44.328Z,8.60
2022-11-21T13:19:20.341Z,8.60
2022-11-21T13:21:50.179Z,8.60
2022-11-21T13:24:52.441Z,8.60
2022-11-21T13:27:31.069Z,8.70
2022-11-21T13:30:25.774Z,8.70
2022-11-21T13:32:55.291Z,8.80
2022-11-21T13:36:05.683Z,8.80
2022-11-21T13:39:14.616Z,8.80
2022-11-21T13:42:28.714Z,8.90
2022-11-21T13:44:57.468Z,8.90
2022-11-21T13:48:10.678Z,8.80
2022-11-21T13:51:04.066Z,8.70
2022-11-21T13:54:24.526Z,8.70
2022-11-21T13:57:06.956Z,8.70
2022-11-21T13:59:57.327Z,8.60
2022-11-21T14:02:51.798Z,8.60
2022-11-21T14:05:39.661Z,8.50
2022-11-21T14:08:20.694Z,8.50
2022-11-21T14:10:52.696Z,8.50
2022-11-21T14:13:29.042Z,8.60
2022-11-21T14:16:15.517Z,8.60
2022-11-21T14:18:47.254Z,8.60
2022-11-21T14:21:22.093Z,8.50
2022-11-21T14:23:50.862Z,8.50
2022-11-21T14:26:22.133Z,8.50
2022-11-21T14:28:50.602Z,8.50
2022-11-21T14:31:19.457Z,8.50
2022-11-21T14:33:48.625Z,8.50
2022-11-21T14:36:19.747Z,8.50
2022-11-21T14:39:07.550Z,8.50
2022-11-21T14:41:39.818Z,8.60
2022-11-21T14:44:20.266Z,8.60
2022-11-21T14:46:49.209Z,8.60
2022-11-21T14:49:29.447Z,8.60
2022-11-21T14:52:16.144Z,8.40
2022-11-21T14:55:14.974Z,8.40
2022-11-21T14:57:42.428Z,8.30
2022-11-21T15:00:43.264Z,8.20
2022-11-21T15:03:05.073Z,8.10
2022-11-21T15:06:00.604Z,8.00
2022-11-21T15:08:55.832Z,7.80
2022-11-21T15:11:13.678Z,7.70
2022-11-21T15:14:12.328Z,7.70
2022-11-21T15:16:33.373Z,7.60
2022-11-21T15:19:01.839Z,7.60
2022-11-21T15:21:31.108Z,7.40
2022-11-21T15:23:59.518Z,7.40
2022-11-21T15:26:31.303Z,7.30
2022-11-21T15:29:02.012Z,7.30
2022-11-21T15:31:30.551Z,7.10
2022-11-21T15:37:04.778Z,7.00
2022-11-21T15:39:34.488Z,6.90
2022-11-21T15:42:38.210Z,6.80
2022-11-21T15:45:25.382Z,6.70
2022-11-21T15:47:56.654Z,6.60
2022-11-21T15:50:26.293Z,6.50
2022-11-21T15:52:55.106Z,6.30
2022-11-21T15:55:26.295Z,6.30
2022-11-21T15:57:54.745Z,6.20
2022-11-21T16:00:24.595Z,6.20
2022-11-21T16:02:53.194Z,6.20
2022-11-21T16:05:21.610Z,6.10
2022-11-21T16:07:50.126Z,6.10
2022-11-21T16:10:26.179Z,6.10
2022-11-21T16:12:56.630Z,6.00
2022-11-21T16:15:26.436Z,5.90
2022-11-21T16:17:54.843Z,5.90
2022-11-21T16:20:25.261Z,5.90
2022-11-21T16:22:56.500Z,5.80
2022-11-21T16:25:24.966Z,5.70
2022-11-21T16:27:53.470Z,5.70
2022-11-21T16:30:22.267Z,5.60
2022-11-21T16:32:55.540Z,5.50
2022-11-21T16:35:24.161Z,5.30
2022-11-21T16:37:53.982Z,5.30
2022-11-21T16:40:22.405Z,5.40
2022-11-21T16:42:50.941Z,5.30
2022-11-21T16:45:19.354Z,5.20
2022-11-21T16:47:49.109Z,5.20
2022-11-21T16:50:19.340Z,5.10
2022-11-21T16:52:47.842Z,5.00
2022-11-21T16:55:16.398Z,4.90
2022-11-21T16:57:44.850Z,4.90
2022-11-21T17:00:13.899Z,4.90
2022-11-21T17:02:42.387Z,4.90
2022-11-21T17:05:11.232Z,4.90
2022-11-21T17:07:41.145Z,5.00
2022-11-21T17:10:10.645Z,5.00
2022-11-21T17:12:39.676Z,4.90
2022-11-21T17:15:10.217Z,4.90
2022-11-21T17:17:38.666Z,4.90
2022-11-21T17:20:08.576Z,4.80
2022-11-21T17:22:37.516Z,4.80
2022-11-21T17:25:08.270Z,4.70
2022-11-21T17:27:36.775Z,4.70
2022-11-21T17:30:06.204Z,4.70
2022-11-21T17:32:35.984Z,4.60
2022-11-21T17:35:04.900Z,4.60
2022-11-21T17:37:33.354Z,4.50
2022-11-21T17:40:01.833Z,4.50
2022-11-21T17:42:31.653Z,4.60
2022-11-21T17:45:00.126Z,4.50
2022-11-21T17:47:28.505Z,4.50
2022-11-21T17:50:00.027Z,4.40
2022-11-21T17:52:32.613Z,4.30
2022-11-21T17:55:01.083Z,4.30
2022-11-21T17:57:30.822Z,4.30
2022-11-21T17:59:59.277Z,4.20
2022-11-21T18:02:27.839Z,4.10
2022-11-21T18:04:56.416Z,4.10
2022-11-21T18:07:24.929Z,4.10
2022-11-21T18:09:53.411Z,4.00
2022-11-21T18:12:22.119Z,4.00
2022-11-21T18:14:51.898Z,3.90
2022-11-21T18:17:20.333Z,3.80
2022-11-21T18:19:48.734Z,3.80
2022-11-21T18:22:17.229Z,3.80
2022-11-21T18:24:46.953Z,3.80
2022-11-21T18:27:15.581Z,3.90
2022-11-21T18:29:44.011Z,3.80
2022-11-21T18:32:13.816Z,3.80
2022-11-21T18:34:42.224Z,3.80
2022-11-21T18:37:10.685Z,3.80
2022-11-21T18:39:39.184Z,3.70
2022-11-21T18:42:08.199Z,3.70
2022-11-21T18:44:36.612Z,3.70
2022-11-21T18:47:19.423Z,3.60
2022-11-21T18:49:49.718Z,3.60
2022-11-21T18:52:18.145Z,3.60
2022-11-21T18:54:47.064Z,3.50
2022-11-21T18:57:15.513Z,3.50
2022-11-21T18:59:43.906Z,3.40
2022-11-21T19:02:12.354Z,3.40
2022-11-21T19:04:40.761Z,3.30
2022-11-21T19:07:10.681Z,3.30
2022-11-21T19:09:39.432Z,3.30
2022-11-21T19:12:08.233Z,3.20
2022-11-21T19:14:36.803Z,3.20
2022-11-21T19:17:05.275Z,3.20
2022-11-21T19:19:35.275Z,3.20
2022-11-21T19:22:05.573Z,3.20
2022-11-21T19:24:35.417Z,3.20
2022-11-21T19:27:03.838Z,3.20
2022-11-21T19:29:33.188Z,3.20
2022-11-21T19:32:01.707Z,3.20
2022-11-21T19:34:30.088Z,3.20
2022-11-21T19:36:58.505Z,3.10
2022-11-21T19:39:27.486Z,3.10
2022-11-21T19:41:57.793Z,3.00
2022-11-21T19:44:26.232Z,2.90
2022-11-21T19:46:54.701Z,2.90
2022-11-21T19:49:23.103Z,2.90
2022-11-21T19:51:51.495Z,2.90
2022-11-21T19:54:19.948Z,2.80
2022-11-21T19:56:48.490Z,2.90
2022-11-21T19:59:18.320Z,2.90
2022-11-21T20:01:52.221Z,2.90
2022-11-21T20:04:21.628Z,2.90
2022-11-21T20:06:53.044Z,3.00
2022-11-21T20:09:23.028Z,3.00
2022-11-21T20:11:52.900Z,3.00
2022-11-21T20:14:23.257Z,3.00
2022-11-21T20:16:53.814Z,2.90
2022-11-21T20:19:24.754Z,2.90
2022-11-21T20:21:53.485Z,2.80
2022-11-21T20:24:22.341Z,2.80
2022-11-21T20:26:50.851Z,2.70
2022-11-21T20:29:19.296Z,2.70
2022-11-21T20:31:49.210Z,2.60
2022-11-21T20:34:17.622Z,2.60
2022-11-21T20:36:47.057Z,2.60
2022-11-21T20:39:16.509Z,2.60
2022-11-21T20:41:45.743Z,2.60
2022-11-21T20:47:05.784Z,2.60
2022-11-21T20:49:34.532Z,2.60
2022-11-21T20:54:51.457Z,2.40
2022-11-21T20:57:20.008Z,2.40
2022-11-21T20:59:48.537Z,2.40
2022-11-21T21:02:18.525Z,2.40
2022-11-21T21:04:47.061Z,2.40
2022-11-21T21:07:15.570Z,2.40
2022-11-21T21:09:44.333Z,2.50
2022-11-21T21:12:12.829Z,2.50
2022-11-21T21:14:41.294Z,2.50
2022-11-21T21:17:10.180Z,2.50
2022-11-21T21:19:40.099Z,2.50
2022-11-21T21:22:13.950Z,2.40
2022-11-21T21:24:47.880Z,2.40
2022-11-21T21:27:16.344Z,2.30
2022-11-21T21:29:44.988Z,2.20
2022-11-21T21:32:13.504Z,2.20
2022-11-21T21:34:43.421Z,2.10
2022-11-21T21:37:31.062Z,2.10
2022-11-21T21:39:59.933Z,2.10
2022-11-21T21:42:28.694Z,2.10
2022-11-21T21:44:57.135Z,2.00
2022-11-21T21:47:36.543Z,2.10
2022-11-21T21:50:15.501Z,2.10
2022-11-21T21:52:44.428Z,2.10
2022-11-21T21:55:12.921Z,2.10
2022-11-21T21:57:46.066Z,2.10
2022-11-21T22:00:17.029Z,2.10
2022-11-21T22:02:45.433Z,2.10
2022-11-21T22:05:15.329Z,2.10
2022-11-21T22:07:43.766Z,2.10
2022-11-21T22:10:12.201Z,2.10
2022-11-21T22:12:43.940Z,2.10
2022-11-21T22:15:30.223Z,2.10
2022-11-21T22:17:58.783Z,2.10
2022-11-21T22:20:28.887Z,2.00
2022-11-21T22:23:00.577Z,2.00
2022-11-21T22:25:29.226Z,2.00
2022-11-21T22:27:57.813Z,2.50
2022-11-21T22:30:26.307Z,3.80
2022-11-21T22:32:54.728Z,4.80
2022-11-21T22:35:23.104Z,5.50
2022-11-21T22:37:52.933Z,6.10
2022-11-21T22:40:21.329Z,6.60
2022-11-21T22:42:49.817Z,6.90
2022-11-21T22:45:18.266Z,7.10
2022-11-21T22:47:48.239Z,7.00
2022-11-21T22:50:17.165Z,7.00
2022-11-21T22:52:45.741Z,7.00
2022-11-21T22:55:15.669Z,6.70
2022-11-21T22:57:44.053Z,6.40
2022-11-21T23:00:13.691Z,6.30
2022-11-21T23:02:42.140Z,6.00
2022-11-21T23:05:10.869Z,5.80
2022-11-21T23:07:39.281Z,5.60
2022-11-21T23:10:08.894Z,5.50
2022-11-21T23:12:38.678Z,5.40
2022-11-21T23:15:08.024Z,5.60
2022-11-21T23:17:36.473Z,5.70
2022-11-21T23:20:05.622Z,5.60
2022-11-21T23:22:34.005Z,5.70
2022-11-21T23:25:02.434Z,5.80
2022-11-21T23:27:30.890Z,5.70
2022-11-21T23:30:00.661Z,5.70
2022-11-21T23:32:29.086Z,5.70
2022-11-21T23:34:57.760Z,5.50
2022-11-21T23:37:26.186Z,5.30
2022-11-21T23:39:54.614Z,5.00
2022-11-21T23:42:23.094Z,4.80
2022-11-21T23:44:51.571Z,4.70
2022-11-21T23:47:21.344Z,4.60
2022-11-21T23:49:50.307Z,4.50
2022-11-21T23:52:18.797Z,4.50
2022-11-21T23:54:47.261Z,4.40
2022-11-21T23:57:15.721Z,4.40
2022-11-21T23:59:44.142Z,4.30
